Time;durP1;ratioP1;P1;durP2;ratioP2;P2;SDS_P1;SDS_P2;PMS_P1;PMS_P2;Temp;Humidity;BMP_temperature;BMP_pressure;BME280_temperature;BME280_humidity;BME280_pressure;Samples;Min_cycle;Max_cycle;Signal;HPM_P1;HPM_P2
2023/01/11 00:01:24;;;;;;;4.10;1.20;;;6.40;99.90;;;;;;5032800;28;20076;-73
2023/01/11 00:03:50;;;;;;;3.22;0.93;;;6.40;99.90;;;;;;5031948;28;20026;-73
2023/01/11 00:06:15;;;;;;;3.95;1.23;;;6.40;99.90;;;;;;5031182;28;20034;-73
2023/01/11 00:08:44;;;;;;;2.33;1.00;;;6.50;99.90;;;;;;5031389;28;20053;-72
2023/01/11 00:11:18;;;;;;;3.35;1.10;;;6.40;99.90;;;;;;5031581;28;20030;-73
2023/01/11 00:13:46;;;;;;;1.70;0.70;;;6.50;99.90;;;;;;5031393;28;20040;-73
2023/01/11 00:16:12;;;;;;;2.08;0.80;;;6.50;99.90;;;;;;5031604;28;20100;-73
2023/01/11 00:18:44;;;;;;;4.85;1.10;;;6.50;99.90;;;;;;5013001;28;20072;-73
2023/01/11 00:21:09;;;;;;;3.60;1.65;;;6.50;99.90;;;;;;5008779;28;20030;-74
2023/01/11 00:23:37;;;;;;;1.83;1.00;;;6.50;99.90;;;;;;5031539;28;20082;-73
2023/01/11 00:26:11;;;;;;;4.15;0.80;;;6.60;99.90;;;;;;5036639;28;20083;-73
2023/01/11 00:28:37;;;;;;;3.13;0.90;;;6.60;99.90;;;;;;5058638;23;20046;-74
2023/01/11 00:31:03;;;;;;;2.00;0.80;;;6.60;99.90;;;;;;5005068;28;20025;-74
2023/01/11 00:33:35;;;;;;;3.80;0.70;;;6.60;99.90;;;;;;4995702;28;20026;-74
2023/01/11 00:36:03;;;;;;;2.47;0.68;;;6.60;99.90;;;;;;5005920;28;20112;-74
2023/01/11 00:38:52;;;;;;;3.85;0.70;;;6.60;99.90;;;;;;5002196;28;20030;-74
2023/01/11 00:49:35;;;;;;;3.67;0.68;;;6.60;99.90;;;;;;5017577;28;20029;-74
2023/01/11 00:52:01;;;;;;;1.50;0.52;;;6.60;99.90;;;;;;5013977;28;20497;-74
2023/01/11 00:54:37;;;;;;;1.48;0.75;;;6.70;99.90;;;;;;5009237;28;20116;-74
2023/01/11 00:57:06;;;;;;;3.40;0.85;;;6.60;99.90;;;;;;5007172;28;20041;-74
2023/01/11 00:59:35;;;;;;;2.70;0.57;;;6.70;99.90;;;;;;4999508;28;20026;-74
2023/01/11 01:02:04;;;;;;;2.03;0.90;;;6.60;99.90;;;;;;4997538;28;20036;-74
2023/01/11 01:04:30;;;;;;;3.25;0.88;;;6.70;99.90;;;;;;5023986;28;20033;-73
2023/01/11 01:06:59;;;;;;;2.97;0.93;;;6.70;99.90;;;;;;5015603;28;20045;-73
2023/01/11 01:09:25;;;;;;;2.40;0.93;;;6.70;99.90;;;;;;5015700;28;20033;-73
2023/01/11 01:11:54;;;;;;;6.45;1.00;;;6.70;99.90;;;;;;4997373;28;20036;-73
2023/01/11 01:14:29;;;;;;;1.52;0.65;;;6.70;99.90;;;;;;5015643;28;20032;-73
2023/01/11 01:17:00;;;;;;;2.90;1.00;;;6.70;99.90;;;;;;4997796;28;20478;-74
2023/01/11 01:19:30;;;;;;;1.55;0.65;;;6.70;99.90;;;;;;4997753;28;20022;-74
2023/01/11 01:21:59;;;;;;;2.17;0.82;;;6.70;99.90;;;;;;4998459;28;20068;-74
2023/01/11 01:24:27;;;;;;;3.35;0.70;;;6.70;99.90;;;;;;5022634;28;20022;-73
2023/01/11 01:26:57;;;;;;;3.95;0.77;;;6.70;99.90;;;;;;5016066;28;20026;-74
2023/01/11 01:29:23;;;;;;;2.83;0.80;;;6.70;99.90;;;;;;5011674;28;20130;-74
2023/01/11 01:31:49;;;;;;;3.75;0.77;;;6.70;99.90;;;;;;5007493;28;20109;-74
2023/01/11 01:34:15;;;;;;;2.53;1.13;;;6.70;99.90;;;;;;5006481;28;20478;-74
2023/01/11 01:36:44;;;;;;;2.40;0.80;;;6.70;99.90;;;;;;5007756;28;20402;-74
2023/01/11 01:39:16;;;;;;;1.67;0.47;;;6.70;99.90;;;;;;4999373;28;20397;-73
2023/01/11 01:41:41;;;;;;;2.08;1.08;;;6.70;99.90;;;;;;5011565;28;20033;-74
2023/01/11 01:44:44;;;;;;;1.55;0.50;;;6.70;99.90;;;;;;4996210;28;20034;-73
2023/01/11 01:47:11;;;;;;;3.17;0.63;;;6.70;99.90;;;;;;5013184;28;20022;-73
2023/01/11 01:49:38;;;;;;;2.15;0.65;;;6.70;99.90;;;;;;5008227;28;20587;-73
2023/01/11 01:52:08;;;;;;;3.72;0.80;;;6.70;99.90;;;;;;5021265;28;20470;-74
2023/01/11 01:54:43;;;;;;;2.28;0.40;;;6.80;99.90;;;;;;5010105;28;20121;-74
2023/01/11 01:57:19;;;;;;;3.60;0.73;;;6.80;99.90;;;;;;4990889;28;20037;-73
2023/01/11 01:59:50;;;;;;;1.27;0.60;;;6.70;99.90;;;;;;5009621;28;20026;-73
2023/01/11 02:02:17;;;;;;;3.92;1.02;;;6.70;99.90;;;;;;5005144;28;20463;-74
2023/01/11 02:04:45;;;;;;;2.78;0.82;;;6.70;99.90;;;;;;4997697;28;20049;-74
2023/01/11 02:07:16;;;;;;;2.95;0.57;;;6.70;99.90;;;;;;5009898;28;20063;-73
2023/01/11 02:10:09;;;;;;;2.95;0.98;;;6.60;99.90;;;;;;4990056;28;20061;-73
2023/01/11 02:12:55;;;;;;;1.42;0.50;;;6.60;99.90;;;;;;4996996;28;20022;-74
2023/01/11 02:15:22;;;;;;;3.70;0.75;;;6.60;99.90;;;;;;5028362;28;20540;-74
2023/01/11 02:17:48;;;;;;;1.48;0.68;;;6.60;99.90;;;;;;5010441;28;20030;-74
2023/01/11 02:20:38;;;;;;;3.63;0.82;;;6.60;99.90;;;;;;4996556;28;20067;-74
2023/01/11 02:23:37;;;;;;;3.70;0.80;;;6.50;99.90;;;;;;5014543;28;20058;-74
2023/01/11 02:26:30;;;;;;;2.08;0.68;;;6.50;99.90;;;;;;5009801;28;20085;-74
2023/01/11 02:29:27;;;;;;;1.80;0.77;;;6.50;99.90;;;;;;4984985;28;20023;-74
2023/01/11 02:32:23;;;;;;;2.55;0.63;;;6.50;99.90;;;;;;5006627;28;21357;-74
2023/01/11 02:35:10;;;;;;;1.60;0.50;;;6.50;99.90;;;;;;5006145;28;20502;-74
2023/01/11 02:38:00;;;;;;;3.58;1.20;;;6.40;99.90;;;;;;5009747;28;20078;-73
2023/01/11 02:41:04;;;;;;;3.70;0.88;;;6.40;99.90;;;;;;5007290;28;20125;-74
2023/01/11 02:46:47;;;;;;;2.50;0.85;;;6.40;99.90;;;;;;5003847;28;20500;-73
2023/01/11 02:49:21;;;;;;;2.72;0.70;;;6.50;99.90;;;;;;4990311;28;20034;-74
2023/01/11 02:52:03;;;;;;;5.75;0.88;;;6.50;99.90;;;;;;4993731;28;20391;-73
2023/01/11 02:54:30;;;;;;;2.72;0.50;;;6.50;99.90;;;;;;4986550;28;20044;-73
2023/01/11 02:56:57;;;;;;;2.13;0.70;;;6.50;99.90;;;;;;4994630;28;20030;-73
2023/01/11 02:59:31;;;;;;;3.67;1.60;;;6.50;99.90;;;;;;5003938;28;20029;-73
2023/01/11 03:01:58;;;;;;;2.33;0.70;;;6.50;99.90;;;;;;5009625;28;20132;-73
2023/01/11 03:04:35;;;;;;;2.05;0.40;;;6.50;99.90;;;;;;5011961;28;20022;-73
2023/01/11 03:07:38;;;;;;;1.15;0.40;;;6.50;99.90;;;;;;5013750;28;20018;-73
2023/01/11 03:10:17;;;;;;;1.00;0.50;;;6.50;99.90;;;;;;4995772;28;20041;-73
2023/01/11 03:13:19;;;;;;;1.58;0.57;;;6.50;99.90;;;;;;5013192;28;20647;-73
2023/01/11 03:16:19;;;;;;;2.42;0.70;;;6.50;99.90;;;;;;5005741;28;20029;-74
2023/01/11 03:19:14;;;;;;;3.17;0.50;;;6.50;99.90;;;;;;5002915;28;20026;-73
2023/01/11 03:22:02;;;;;;;4.25;0.93;;;6.60;99.90;;;;;;4965386;28;20127;-74
2023/01/11 03:24:50;;;;;;;1.05;0.40;;;6.50;99.90;;;;;;5007813;28;20034;-74
2023/01/11 03:27:41;;;;;;;3.08;0.80;;;6.60;99.90;;;;;;5012867;28;20041;-74
2023/01/11 03:30:25;;;;;;;1.60;0.47;;;6.60;99.90;;;;;;5008295;28;20033;-73
2023/01/11 03:32:53;;;;;;;;;;;6.60;99.90;;;;;;5014354;28;20034;-73
2023/01/11 03:35:27;;;;;;;2.75;0.70;;;6.60;99.90;;;;;;5006128;28;20301;-74
2023/01/11 03:37:52;;;;;;;2.03;0.43;;;6.60;99.90;;;;;;5010704;28;20095;-74
2023/01/11 03:40:43;;;;;;;1.85;0.50;;;6.70;99.90;;;;;;5002969;28;20495;-74
2023/01/11 03:43:11;;;;;;;0.93;0.40;;;6.70;99.90;;;;;;4987902;28;20496;-73
2023/01/11 03:46:00;;;;;;;2.33;0.50;;;6.80;99.90;;;;;;4985978;28;20053;-74
2023/01/11 03:48:48;;;;;;;1.10;0.50;;;6.80;99.90;;;;;;5002298;28;20029;-74
2023/01/11 03:51:18;;;;;;;0.80;0.38;;;6.90;99.90;;;;;;4989098;28;20026;-74
2023/01/11 03:53:46;;;;;;;2.25;0.52;;;6.90;99.90;;;;;;5010421;28;20026;-74
2023/01/11 03:56:15;;;;;;;1.05;0.45;;;6.90;99.90;;;;;;5011949;28;20088;-74
2023/01/11 03:58:44;;;;;;;2.25;0.40;;;7.00;99.90;;;;;;5008296;28;20026;-73
2023/01/11 04:01:16;;;;;;;0.90;0.55;;;7.00;99.90;;;;;;5013004;28;20029;-74
2023/01/11 04:03:53;;;;;;;2.55;0.60;;;7.00;99.90;;;;;;4995707;28;20117;-74
2023/01/11 04:06:20;;;;;;;1.30;0.38;;;7.10;99.90;;;;;;5013056;28;20041;-73
2023/01/11 04:08:45;;;;;;;3.90;0.52;;;7.00;99.90;;;;;;4995241;28;20026;-74
2023/01/11 04:11:17;;;;;;;4.13;0.50;;;7.10;99.90;;;;;;4995806;28;20080;-73
2023/01/11 04:13:42;;;;;;;0.90;0.50;;;7.10;99.90;;;;;;5016751;28;20026;-73
2023/01/11 04:16:11;;;;;;;1.67;0.50;;;7.10;99.90;;;;;;4999277;28;20088;-73
2023/01/11 04:18:43;;;;;;;2.00;0.47;;;7.10;99.90;;;;;;4999829;28;20030;-73
2023/01/11 04:21:09;;;;;;;3.83;0.60;;;7.10;99.90;;;;;;4979571;28;20506;-74
2023/01/11 04:23:34;;;;;;;2.20;0.60;;;7.20;99.90;;;;;;4997237;28;20027;-74
2023/01/11 04:26:00;;;;;;;2.58;0.90;;;7.20;99.90;;;;;;4996820;28;20101;-74
2023/01/11 04:28:25;;;;;;;1.77;0.73;;;7.20;99.90;;;;;;4996552;28;20030;-74
2023/01/11 04:30:54;;;;;;;1.15;0.38;;;7.20;99.90;;;;;;4996787;28;20101;-74
2023/01/11 04:33:20;;;;;;;2.58;0.60;;;7.20;99.90;;;;;;4995631;28;20114;-74
2023/01/11 04:35:45;;;;;;;3.08;0.60;;;7.20;99.90;;;;;;4979328;28;20121;-74
2023/01/11 04:38:11;;;;;;;1.25;0.65;;;7.20;99.90;;;;;;4979126;28;20030;-73
2023/01/11 04:40:37;;;;;;;3.10;1.00;;;7.20;99.90;;;;;;4995873;28;20039;-74
2023/01/11 04:43:03;;;;;;;1.45;0.50;;;7.20;99.90;;;;;;4979107;28;20490;-74
2023/01/11 04:45:32;;;;;;;2.63;0.90;;;7.20;99.90;;;;;;4979062;28;20030;-74
2023/01/11 04:48:03;;;;;;;2.33;0.98;;;7.20;99.90;;;;;;4996484;28;20034;-74
2023/01/11 04:50:29;;;;;;;1.98;0.60;;;7.30;99.90;;;;;;4996576;28;20034;-74
2023/01/11 04:52:58;;;;;;;0.80;0.50;;;7.30;99.90;;;;;;4978691;28;20026;-74
2023/01/11 04:55:24;;;;;;;0.88;0.50;;;7.30;99.90;;;;;;4996370;28;20018;-74
2023/01/11 04:57:49;;;;;;;1.52;0.52;;;7.30;99.90;;;;;;4996168;28;20077;-74
2023/01/11 05:00:15;;;;;;;0.98;0.60;;;7.30;99.90;;;;;;4996405;28;20030;-74
2023/01/11 05:02:41;;;;;;;6.13;0.70;;;7.30;99.90;;;;;;4996278;28;20041;-74
2023/01/11 05:05:12;;;;;;;3.70;0.70;;;7.30;99.90;;;;;;5012735;28;20549;-74
2023/01/11 05:07:38;;;;;;;2.92;0.70;;;7.30;99.90;;;;;;5029477;28;20443;-74
2023/01/11 05:10:04;;;;;;;2.63;0.55;;;7.30;99.90;;;;;;4998046;28;20053;-73
2023/01/11 05:12:30;;;;;;;3.28;0.75;;;7.30;99.90;;;;;;4998254;28;20026;-73
2023/01/11 05:14:59;;;;;;;2.63;0.63;;;7.30;99.90;;;;;;5015458;28;20025;-73
2023/01/11 05:17:24;;;;;;;3.58;0.90;;;7.30;99.90;;;;;;5030076;28;20056;-74
2023/01/11 05:19:50;;;;;;;2.35;0.93;;;7.30;99.90;;;;;;5033912;28;20057;-74
2023/01/11 05:22:15;;;;;;;2.67;0.90;;;7.20;99.90;;;;;;4997653;28;20038;-74
2023/01/11 05:24:41;;;;;;;4.05;0.93;;;7.20;99.90;;;;;;5014547;28;20026;-74
2023/01/11 05:27:06;;;;;;;3.15;0.98;;;7.20;99.90;;;;;;4997615;28;20061;-74
2023/01/11 05:29:35;;;;;;;4.15;0.77;;;7.20;99.90;;;;;;5014611;28;20088;-74
2023/01/11 05:32:01;;;;;;;6.70;1.25;;;7.20;99.90;;;;;;5015557;28;20105;-74
2023/01/11 05:34:26;;;;;;;3.20;0.90;;;7.20;99.90;;;;;;5014806;28;20494;-75
2023/01/11 05:36:55;;;;;;;2.53;0.80;;;7.20;99.90;;;;;;4999498;28;20053;-74
2023/01/11 05:39:22;;;;;;;3.72;0.93;;;7.20;99.90;;;;;;5004582;28;20034;-74
2023/01/11 05:41:59;;;;;;;3.05;1.00;;;7.20;99.90;;;;;;5010897;28;20499;-74
2023/01/11 05:47:09;;;;;;;2.72;0.80;;;7.20;99.90;;;;;;5015120;28;20029;-74
2023/01/11 05:49:41;;;;;;;3.25;1.13;;;7.20;99.90;;;;;;4997201;28;20030;-74
2023/01/11 05:52:15;;;;;;;1.67;0.65;;;7.20;99.90;;;;;;5014712;28;20140;-74
2023/01/11 05:54:41;;;;;;;5.13;0.80;;;7.10;99.90;;;;;;5014748;28;20025;-74
2023/01/11 05:57:09;;;;;;;1.55;0.68;;;7.10;99.90;;;;;;5014666;28;20044;-73
2023/01/11 05:59:38;;;;;;;3.58;0.75;;;7.10;99.90;;;;;;4996531;28;20055;-73
2023/01/11 06:02:09;;;;;;;3.10;0.85;;;7.10;99.90;;;;;;4990208;28;20062;-74
2023/01/11 06:04:35;;;;;;;1.98;0.95;;;7.10;99.90;;;;;;4991365;28;20049;-74
2023/01/11 06:07:15;;;;;;;4.25;1.13;;;7.10;99.90;;;;;;4992221;28;20021;-73
2023/01/11 06:09:41;;;;;;;2.05;0.85;;;7.10;99.90;;;;;;4996838;28;20022;-74
2023/01/11 06:12:10;;;;;;;2.08;1.23;;;7.10;99.90;;;;;;5002912;28;20157;-74
2023/01/11 06:14:35;;;;;;;3.45;1.20;;;7.10;99.90;;;;;;4994038;28;20030;-74
2023/01/11 06:17:01;;;;;;;2.55;1.08;;;7.10;99.90;;;;;;5009480;28;20108;-75
2023/01/11 06:19:30;;;;;;;2.53;1.02;;;7.20;99.90;;;;;;4992750;28;20501;-73
2023/01/11 06:21:55;;;;;;;2.58;1.10;;;7.20;99.90;;;;;;5009749;28;20415;-73
2023/01/11 06:24:21;;;;;;;3.30;1.20;;;7.20;99.90;;;;;;5011288;28;20021;-74
2023/01/11 06:26:46;;;;;;;2.60;0.98;;;7.20;99.90;;;;;;4999144;28;20058;-74
2023/01/11 06:29:15;;;;;;;5.78;1.38;;;7.20;99.90;;;;;;5015481;23;20502;-72
2023/01/11 06:31:44;;;;;;;4.97;1.25;;;7.20;99.90;;;;;;5007778;28;23494;-71
2023/01/11 06:34:12;;;;;;;3.95;1.65;;;7.20;99.90;;;;;;4991508;28;20092;-72
2023/01/11 06:36:38;;;;;;;4.00;1.30;;;7.30;99.90;;;;;;5008359;28;20030;-72
2023/01/11 06:39:06;;;;;;;2.55;1.30;;;7.30;99.90;;;;;;5006366;28;20421;-71
2023/01/11 06:41:32;;;;;;;8.82;1.48;;;7.30;99.90;;;;;;5007619;28;20030;-71
2023/01/11 06:44:01;;;;;;;3.60;1.60;;;7.20;99.90;;;;;;5010582;28;20022;-71
2023/01/11 06:46:26;;;;;;;3.63;1.27;;;7.30;99.90;;;;;;4988873;28;20100;-71
2023/01/11 06:49:02;;;;;;;0.90;0.70;;;7.20;99.90;;;;;;4992078;28;20030;-72
2023/01/11 06:51:27;;;;;;;1.38;0.70;;;7.20;99.90;;;;;;4991199;28;20034;-71
2023/01/11 06:53:53;;;;;;;1.63;0.80;;;7.20;99.90;;;;;;5006371;28;20091;-72
2023/01/11 06:56:25;;;;;;;3.92;1.05;;;7.20;99.90;;;;;;4989834;28;20583;-72
2023/01/11 06:58:51;;;;;;;2.40;0.80;;;7.20;99.90;;;;;;4990960;28;20486;-72
2023/01/11 07:01:20;;;;;;;1.40;1.00;;;7.10;99.90;;;;;;5011556;28;20151;-72
2023/01/11 07:03:51;;;;;;;3.40;0.98;;;7.20;99.90;;;;;;5005833;28;20157;-73
2023/01/11 07:06:17;;;;;;;3.58;1.40;;;7.20;99.90;;;;;;5008394;28;20034;-71
2023/01/11 07:08:49;;;;;;;2.25;0.88;;;7.20;99.90;;;;;;5008726;28;20033;-72
2023/01/11 07:11:17;;;;;;;2.78;1.35;;;7.10;99.90;;;;;;5009901;28;20026;-71
2023/01/11 07:13:43;;;;;;;2.78;1.00;;;7.10;99.90;;;;;;5008962;28;20030;-72
2023/01/11 07:16:09;;;;;;;2.83;1.00;;;7.20;99.90;;;;;;5006758;28;20060;-72
2023/01/11 07:18:34;;;;;;;3.08;0.80;;;7.10;99.90;;;;;;5007559;28;20119;-72
2023/01/11 07:21:01;;;;;;;2.33;0.98;;;7.20;99.90;;;;;;4994618;28;20040;-72
2023/01/11 07:23:26;;;;;;;2.38;0.93;;;7.20;99.90;;;;;;5006055;28;20422;-71
2023/01/11 07:25:52;;;;;;;1.92;1.23;;;7.20;99.90;;;;;;4994976;28;20041;-72
2023/01/11 07:28:21;;;;;;;1.40;0.75;;;7.20;99.90;;;;;;4994438;28;20034;-72
2023/01/11 07:30:47;;;;;;;1.95;0.95;;;7.20;99.90;;;;;;5005954;28;20029;-72
2023/01/11 07:33:14;;;;;;;2.10;0.95;;;7.20;99.90;;;;;;5004572;28;20102;-73
2023/01/11 07:35:40;;;;;;;1.75;0.80;;;7.30;99.90;;;;;;5005803;28;20914;-71
2023/01/11 07:38:08;;;;;;;4.72;1.13;;;7.30;99.90;;;;;;5007595;28;20034;-71
2023/01/11 07:40:35;;;;;;;4.55;1.15;;;7.40;99.90;;;;;;4996563;28;20033;-71
2023/01/11 07:43:18;;;;;;;1.95;1.05;;;7.40;99.90;;;;;;5000952;28;20026;-71
2023/01/11 07:45:47;;;;;;;2.70;1.33;;;7.40;99.90;;;;;;5003082;28;20026;-72
2023/01/11 07:48:19;;;;;;;2.55;1.00;;;7.40;99.90;;;;;;4989210;28;20021;-71
2023/01/11 07:50:45;;;;;;;6.70;1.05;;;7.40;99.90;;;;;;5004687;28;20088;-72
2023/01/11 07:53:11;;;;;;;2.22;1.10;;;7.40;99.90;;;;;;4988088;28;20034;-72
2023/01/11 07:55:38;;;;;;;3.00;1.02;;;7.50;99.90;;;;;;5006338;28;20041;-71
2023/01/11 07:58:11;;;;;;;2.05;0.90;;;7.50;99.90;;;;;;5003534;28;20034;-71
2023/01/11 08:00:36;;;;;;;3.10;1.13;;;7.50;99.90;;;;;;4991170;28;20034;-71
2023/01/11 08:03:02;;;;;;;4.57;1.67;;;7.60;99.90;;;;;;5004180;28;20409;-72
2023/01/11 08:05:28;;;;;;;1.50;0.80;;;7.60;99.90;;;;;;5001658;28;20017;-72
2023/01/11 08:07:54;;;;;;;2.63;1.10;;;7.70;99.90;;;;;;4987394;28;20026;-72
2023/01/11 08:10:19;;;;;;;3.05;1.05;;;7.70;99.90;;;;;;5005821;28;20099;-71
2023/01/11 08:15:33;;;;;;;2.05;0.98;;;7.80;99.90;;;;;;5006375;28;20383;-72
2023/01/11 08:17:59;;;;;;;4.55;1.10;;;7.80;99.90;;;;;;5001157;28;20145;-72
2023/01/11 08:20:25;;;;;;;3.00;0.80;;;7.90;99.90;;;;;;5003533;28;20380;-72
2023/01/11 08:22:52;;;;;;;1.10;0.70;;;7.90;99.90;;;;;;5004978;28;20018;-71
2023/01/11 08:25:17;;;;;;;1.92;0.88;;;8.00;99.90;;;;;;5004376;28;20022;-71
2023/01/11 08:27:46;;;;;;;4.00;1.10;;;8.00;99.90;;;;;;5007556;28;20022;-71
2023/01/11 08:30:12;;;;;;;3.70;0.90;;;8.00;99.90;;;;;;5000607;28;20146;-71
2023/01/11 08:32:43;;;;;;;3.92;1.33;;;8.10;99.90;;;;;;5001138;28;20037;-72
2023/01/11 08:35:12;;;;;;;1.83;1.10;;;8.20;99.90;;;;;;5004605;28;20022;-72
2023/01/11 08:37:38;;;;;;;2.08;0.77;;;8.20;99.90;;;;;;5003879;28;20048;-71
2023/01/11 08:40:04;;;;;;;6.03;1.33;;;8.20;99.90;;;;;;5003853;28;20479;-72
2023/01/11 08:42:31;;;;;;;2.60;1.25;;;8.30;99.90;;;;;;5004078;28;20050;-72
2023/01/11 08:44:57;;;;;;;3.03;1.17;;;8.30;99.90;;;;;;5008505;28;20032;-72
2023/01/11 08:47:22;;;;;;;3.20;0.80;;;8.30;99.90;;;;;;4985905;28;20026;-71
2023/01/11 08:49:48;;;;;;;3.38;1.00;;;8.40;99.90;;;;;;5007292;28;20061;-70
2023/01/11 08:52:15;;;;;;;1.98;0.98;;;8.40;99.90;;;;;;5004149;28;20033;-71
2023/01/11 08:54:41;;;;;;;1.27;0.68;;;8.40;99.90;;;;;;4987982;28;20030;-70
2023/01/11 08:57:06;;;;;;;2.35;0.80;;;8.40;99.90;;;;;;4989901;28;20463;-71
2023/01/11 08:59:32;;;;;;;2.97;1.10;;;8.40;99.90;;;;;;5014386;28;20442;-72
2023/01/11 09:01:58;;;;;;;2.58;1.10;;;8.50;99.90;;;;;;5006285;28;20045;-72
2023/01/11 09:04:27;;;;;;;2.45;0.93;;;8.50;99.90;;;;;;4992301;28;20034;-72
2023/01/11 09:06:53;;;;;;;2.90;0.98;;;8.50;99.90;;;;;;5009431;28;20159;-72
2023/01/11 09:09:30;;;;;;;3.03;1.10;;;8.50;99.90;;;;;;5011186;28;20500;-72
2023/01/11 09:12:03;;;;;;;2.78;0.98;;;8.60;99.90;;;;;;5011020;28;21144;-72
2023/01/11 09:14:35;;;;;;;4.60;1.30;;;8.60;99.90;;;;;;5008773;28;20026;-71
2023/01/11 09:17:07;;;;;;;2.28;1.00;;;8.60;99.90;;;;;;5007220;28;20492;-72
2023/01/11 09:19:38;;;;;;;2.70;1.10;;;8.70;99.90;;;;;;5006813;28;20121;-71
2023/01/11 09:22:04;;;;;;;1.58;0.80;;;8.70;99.90;;;;;;5002943;28;20458;-72
2023/01/11 09:24:36;;;;;;;3.72;0.85;;;8.70;99.90;;;;;;5011203;28;20101;-71
2023/01/11 09:27:04;;;;;;;2.97;1.08;;;8.80;99.90;;;;;;5008577;28;20035;-72
2023/01/11 09:29:30;;;;;;;1.98;1.08;;;8.80;99.90;;;;;;5011767;28;20048;-72
2023/01/11 09:31:56;;;;;;;4.80;1.10;;;8.80;99.90;;;;;;5005728;28;20466;-72
2023/01/11 09:34:23;;;;;;;4.50;1.02;;;8.90;99.90;;;;;;5006245;28;20037;-72
2023/01/11 09:36:49;;;;;;;2.20;0.93;;;8.90;99.90;;;;;;5007927;28;20418;-72
2023/01/11 09:39:17;;;;;;;3.47;0.90;;;8.90;99.90;;;;;;5009751;28;20024;-72
2023/01/11 09:42:09;;;;;;;2.03;0.80;;;9.00;99.90;;;;;;5007485;28;20021;-72
2023/01/11 09:44:57;;;;;;;2.67;1.00;;;9.00;99.90;;;;;;5008921;28;20076;-71
2023/01/11 09:48:02;;;;;;;3.15;1.05;;;9.00;99.90;;;;;;5007056;28;20093;-72
2023/01/11 09:50:31;;;;;;;3.22;1.00;;;9.10;99.90;;;;;;5002379;28;20026;-71
2023/01/11 09:53:06;;;;;;;3.03;0.98;;;9.10;99.90;;;;;;5000532;28;20117;-73
2023/01/11 09:55:45;;;;;;;5.72;1.20;;;9.10;99.90;;;;;;4989176;28;20045;-72
2023/01/11 09:58:21;;;;;;;4.63;1.00;;;9.10;99.90;;;;;;5005010;28;20022;-72
2023/01/11 10:01:07;;;;;;;1.60;0.88;;;9.20;99.90;;;;;;5006476;28;20026;-72
2023/01/11 10:03:35;;;;;;;5.97;1.40;;;9.10;99.90;;;;;;4988753;28;20558;-72
2023/01/11 10:06:30;;;;;;;4.03;1.00;;;9.10;99.90;;;;;;4996143;28;20022;-73
2023/01/11 10:09:08;;;;;;;4.47;0.93;;;9.20;99.90;;;;;;4980845;28;20510;-72
2023/01/11 10:12:03;;;;;;;2.45;1.20;;;9.20;99.90;;;;;;5001344;28;20104;-72
2023/01/11 10:14:34;;;;;;;2.97;1.15;;;9.20;99.90;;;;;;5007599;28;20433;-72
2023/01/11 10:17:40;;;;;;;3.20;1.13;;;9.20;99.90;;;;;;5008508;28;20068;-71
2023/01/11 10:20:11;;;;;;;2.13;0.75;;;9.20;99.90;;;;;;5004314;28;20033;-70
2023/01/11 10:22:43;;;;;;;1.23;0.65;;;9.20;99.90;;;;;;5004030;28;20018;-71
2023/01/11 10:25:15;;;;;;;2.20;0.68;;;9.30;99.90;;;;;;5002842;28;20099;-71
2023/01/11 10:27:59;;;;;;;0.80;0.50;;;9.30;99.90;;;;;;5005553;28;20100;-70
2023/01/11 10:34:01;;;;;;;1.98;0.60;;;9.40;99.90;;;;;;5008082;28;20022;-70
2023/01/11 10:42:28;;;;;;;4.15;1.10;;;9.40;99.90;;;;;;5010261;28;20441;-73
2023/01/11 10:45:15;;;;;;;1.92;0.70;;;9.50;99.90;;;;;;5009320;28;20022;-72
2023/01/11 10:48:03;;;;;;;3.08;0.95;;;9.50;99.90;;;;;;5006213;28;20029;-72
2023/01/11 10:50:37;;;;;;;2.25;1.05;;;9.50;99.90;;;;;;5000383;28;20189;-71
2023/01/11 10:53:22;;;;;;;;;;;9.50;99.90;;;;;;5010594;28;20132;-71
2023/01/11 10:55:54;;;;;;;2.72;1.20;;;9.50;99.90;;;;;;5009765;28;19917;-72
2023/01/11 10:58:22;;;;;;;3.92;1.30;;;9.50;99.90;;;;;;5010657;28;20049;-71
2023/01/11 11:00:57;;;;;;;1.13;0.75;;;9.50;99.90;;;;;;4994199;28;20044;-71
2023/01/11 11:03:42;;;;;;;2.72;1.10;;;9.60;99.90;;;;;;5003148;28;20028;-72
2023/01/11 11:06:33;;;;;;;3.65;1.20;;;9.60;99.90;;;;;;4999095;28;20021;-72
2023/01/11 11:09:17;;;;;;;1.30;0.80;;;9.60;99.90;;;;;;5011319;28;20018;-73
2023/01/11 11:11:54;;;;;;;3.08;1.00;;;9.60;99.90;;;;;;5006544;28;20422;-70
2023/01/11 11:14:37;;;;;;;3.75;1.75;;;9.60;99.90;;;;;;5007658;28;20035;-72
2023/01/11 11:17:43;;;;;;;1.42;0.90;;;9.70;99.90;;;;;;5008544;28;20061;-72
2023/01/11 11:20:12;;;;;;;2.47;1.23;;;9.70;99.90;;;;;;4994980;28;20045;-72
2023/01/11 11:22:37;;;;;;;3.25;1.25;;;9.80;99.90;;;;;;5004362;28;20037;-72
2023/01/11 11:25:12;;;;;;;2.08;1.10;;;9.80;99.90;;;;;;5001443;28;20034;-72
2023/01/11 11:27:51;;;;;;;2.92;0.90;;;9.80;99.90;;;;;;5001251;28;20061;-72
2023/01/11 11:30:31;;;;;;;2.65;1.10;;;9.90;99.90;;;;;;5004407;28;20360;-71
2023/01/11 11:33:23;;;;;;;3.30;1.33;;;9.90;99.90;;;;;;4986983;28;21021;-70
2023/01/11 11:36:03;;;;;;;4.10;2.15;;;9.90;99.90;;;;;;4991883;28;20030;-70
2023/01/11 11:38:31;;;;;;;1.58;0.80;;;10.00;99.90;;;;;;4990303;28;20026;-71
2023/01/11 11:41:03;;;;;;;2.85;0.80;;;10.10;99.90;;;;;;4985507;28;20076;-71
2023/01/11 11:43:30;;;;;;;1.02;0.47;;;10.20;99.90;;;;;;4985818;28;20084;-71
2023/01/11 11:46:02;;;;;;;2.83;1.20;;;10.30;99.90;;;;;;5000939;28;20525;-72
2023/01/11 11:48:31;;;;;;;0.95;0.50;;;10.40;99.90;;;;;;4988406;28;20483;-70
2023/01/11 11:50:59;;;;;;;1.95;1.10;;;10.40;99.90;;;;;;4991674;28;22184;-71
2023/01/11 11:53:52;;;;;;;1.17;0.40;;;10.50;99.90;;;;;;5004372;28;20084;-70
2023/01/11 11:56:31;;;;;;;1.17;0.68;;;10.60;99.90;;;;;;4992003;28;20380;-71
2023/01/11 11:58:58;;;;;;;3.42;1.70;;;10.70;99.90;;;;;;5004966;28;20052;-72
2023/01/11 12:01:36;;;;;;;4.38;1.98;;;10.80;99.90;;;;;;5001427;28;20028;-71
2023/01/11 12:04:13;;;;;;;1.98;1.25;;;10.80;99.90;;;;;;4984136;28;20029;-71
2023/01/11 12:06:39;;;;;;;2.28;1.00;;;10.90;99.90;;;;;;5003397;28;20053;-71
2023/01/11 12:09:11;;;;;;;11.27;5.45;;;10.90;99.90;;;;;;5001050;28;20415;-70
2023/01/11 12:11:40;;;;;;;2.85;1.90;;;10.90;99.90;;;;;;4998843;28;20100;-71
2023/01/11 12:14:09;;;;;;;2.50;0.98;;;10.90;99.90;;;;;;4983427;28;20037;-70
2023/01/11 12:16:40;;;;;;;1.63;0.75;;;11.00;99.90;;;;;;5002103;28;20030;-71
2023/01/11 12:19:35;;;;;;;3.33;1.10;;;11.00;99.90;;;;;;4987028;28;20149;-71
2023/01/11 12:22:14;;;;;;;1.85;0.70;;;11.00;99.90;;;;;;4981362;28;20120;-71
2023/01/11 12:24:40;;;;;;;1.58;1.02;;;11.00;99.90;;;;;;5000519;28;20036;-70
2023/01/11 12:27:33;;;;;;;3.78;2.58;;;11.00;99.90;;;;;;4981403;28;20030;-71
2023/01/11 12:30:16;;;;;;;0.52;0.38;;;11.00;99.90;;;;;;5023140;22;20465;-76
2023/01/11 12:32:48;;;;;;;3.37;2.23;;;11.00;99.90;;;;;;5000503;28;20080;-77
2023/01/11 12:35:22;;;;;;;1.00;0.80;;;11.00;99.90;;;;;;5019327;28;20053;-78
2023/01/11 12:37:57;;;;;;;1.40;0.90;;;11.00;99.90;;;;;;5002808;28;20053;-78
2023/01/11 12:40:35;;;;;;;0.88;0.60;;;11.10;99.90;;;;;;4980642;28;20037;-78
2023/01/11 12:43:17;;;;;;;0.60;0.35;;;11.10;99.90;;;;;;4993870;28;20085;-80
2023/01/11 12:46:07;;;;;;;0.88;0.28;;;11.10;99.90;;;;;;4991224;28;20077;-81
2023/01/11 12:48:56;;;;;;;1.95;0.70;;;11.10;99.90;;;;;;4975852;28;20026;-79
2023/01/11 12:51:45;;;;;;;0.30;0.20;;;11.10;99.90;;;;;;4991350;28;20039;-79
2023/01/11 12:54:30;;;;;;;0.70;0.40;;;11.10;99.90;;;;;;4987662;28;20034;-79
2023/01/11 12:57:26;;;;;;;0.95;0.47;;;11.10;99.90;;;;;;4992402;28;20069;-77
2023/01/11 13:00:26;;;;;;;2.63;1.52;;;11.00;99.90;;;;;;4996899;28;20026;-77
2023/01/11 13:03:04;;;;;;;1.77;0.65;;;11.00;99.90;;;;;;4931345;28;20567;-78
2023/01/11 13:05:48;;;;;;;1.95;1.15;;;11.00;99.90;;;;;;4994879;28;20018;-78
2023/01/11 13:08:19;;;;;;;;;;;10.90;99.90;;;;;;4995198;28;20030;-78
2023/01/11 13:11:33;;;;;;;1.00;0.50;;;10.90;99.90;;;;;;4980417;28;19916;-78
2023/01/11 13:14:40;;;;;;;1.42;0.35;;;10.90;99.90;;;;;;4996295;28;20028;-77
2023/01/11 13:17:24;;;;;;;0.68;0.50;;;10.80;99.90;;;;;;4929302;28;20050;-76
2023/01/11 13:19:56;;;;;;;2.55;0.60;;;10.70;99.90;;;;;;4990004;28;20534;-77
2023/01/11 13:22:28;;;;;;;1.10;0.50;;;10.60;99.90;;;;;;4993448;28;20066;-79
2023/01/11 13:24:54;;;;;;;2.55;0.60;;;10.60;99.90;;;;;;5000014;28;20018;-78
2023/01/11 13:27:23;;;;;;;0.68;0.40;;;10.50;99.90;;;;;;4999357;28;20054;-77
2023/01/11 13:29:58;;;;;;;2.45;0.85;;;10.50;99.90;;;;;;4998313;28;20105;-79
2023/01/11 13:32:31;;;;;;;0.90;0.57;;;10.40;99.90;;;;;;4993244;28;20030;-78
2023/01/11 13:35:30;;;;;;;1.90;1.10;;;10.40;99.90;;;;;;4990829;28;20049;-78
2023/01/11 13:38:07;;;;;;;1.52;0.90;;;10.30;99.90;;;;;;4983636;28;20058;-79
2023/01/11 13:40:37;;;;;;;0.88;0.40;;;10.30;99.90;;;;;;4991916;28;20026;-79
2023/01/11 13:43:08;;;;;;;1.38;0.70;;;10.30;99.90;;;;;;4978175;28;20399;-78
2023/01/11 13:45:48;;;;;;;3.15;0.60;;;10.30;99.90;;;;;;4980784;28;20082;-76
2023/01/11 13:48:39;;;;;;;1.98;0.60;;;10.30;99.90;;;;;;4999104;28;20391;-78
2023/01/11 13:51:08;;;;;;;3.40;0.82;;;10.20;99.90;;;;;;4992952;28;20110;-77
2023/01/11 13:53:59;;;;;;;2.85;1.35;;;10.30;99.90;;;;;;4994456;28;20034;-79